Etusivu
METAR-TAF:

METAR-TAF

Lentoasemat :

Lanseria, Etelä-Afrikka

Leveyspiiri: 25-56S, Pituuspiiri: 027-56E, korkeus merenpinnasta: 1377 m

Tämänhetkinen sää

Tämä raportti tehtiin 29 minuuttia sitten, kello 13.00 UTC
Tuuli 16 kn luoteesta
Lämpötila 24°C
Kosteus 10%
Ilmanpaine 1023 hPa
Näkyvyys 10 km tai enemmän
ei pilviä alle 1500 m:ssä eikä cumulonimbus-pilviä

METAR: FALA 131300Z 31016KT CAVOK 24/M09 Q1023 NOSIG

Aika: 15:29 (13:29 UTC)

Sääennuste

Tämä raportti tehtiin 3 tuntia ja 29 minuuttia sitten, kello 10.00 UTC
Ennuste voimassa 13. päivästä klo 12 UTC - 14. päivään klo 12 UTC
Tuuli 13 kn pohjoisen/luoteesta
Näkyvyys 10 km tai enemmän
ei pilviä alle 1500 m:ssä eikä cumulonimbus-pilviä
Tulossa
13. päivästä klo 15 UTC - 13. päivään klo 17 UTC
Tuuli 3 kn eri suunnista
Tulossa
14. päivästä klo 09 UTC - 14. päivään klo 11 UTC
Tuuli 15 kn lännestä/luoteesta

TAF: FALA 131000Z 1312/1412 33013KT CAVOK TX24/1312Z TN05/1404Z BECMG 1315/1317 VRB03KT BECMG 1409/1411 29015KT

Säähavainnot ja -ennusteet yli 4000 lentoasemalta (METAR- ja TAF-raportit).

Käytössä olevat sääasemat on merkitty karttaan keltaisilla ja punaisilla pisteillä.

Aseta hiiri pisteen päälle nähdäksesi sääaseman nimen.

Klikkaa sitten nähdäksesi säähavainnot ja -ennusteet.

Kartan vaihtaminen: klikkaa mustalla rastilla varustettuja vihreitä pisteitä, niin voit zoomata sisään; viivalla varustettua vihreää pistettä, niin voit zoomata ulos tai vihreitä nuolia, niin pääset viereisille kartoille.


METAR-TAF: